Hurst, TX (76053)

7:48 PM CDT on August 28, 2014 (GMT -0500)
Hurst Bell Station | Change Station
CLOSE
Current Station
Personal Weather Station
Location: Hurst, TX
Elevation: 528 ft
Nearby Weather Stations

Elev 528 ft 32.81 °N, 97.15 °W | Updated 1 second ago

Clear
Clear
90.4 °F
Feels Like 93 °F
N
0.0
Wind Variable Wind from SSW
Gusts 0.1 mph

Today
High -- | Low -- °F
--% Chance of Precip.
Yesterday
High -- | Low -- °F
Precip. -- in
7:00 AM 7:58 PM
Waxing Crescent, 11% visible
Pressure 29.80 in
Visibility 10.0 miles
Clouds Few 7500 ft
Few 15000 ft
Scattered Clouds 30000 ft
Heat Index 93 °F
Dew Point 66 °F
Humidity 45%
Rainfall 0.00 in
Snow Depth Not available.
UV 1 out of 12
Pollen 9.70 out of 12
Ozone Good
PM2.5 Good
Flu Activity Not available.
METAR KDFW 282353Z 16009KT 10SM FEW075 FEW150 SCT300 34/16 A2983 RMK AO2 SLP091 T03390156 10356 20328 56014

More Conditions Fewer Conditions

Pressure 29.80 in
Visibility 10.0 miles
Clouds Few 7500 ft
Few 15000 ft
Scattered Clouds 30000 ft
Heat Index 93 °F
Dew Point 66 °F
Humidity 45%
Rainfall 0.00 in
Snow Depth Not available.
UV 1 out of 12
Pollen 9.70 out of 12
Ozone Good
PM2.5 Good
Flu Activity Not available.
METAR KDFW 282353Z 16009KT 10SM FEW075 FEW150 SCT300 34/16 A2983 RMK AO2 SLP091 T03390156 10356 20328 56014

More Conditions Fewer Conditions

Nowcast | as of 5:25 PM CDT on August 28, 2014

Isolated showers and thunderstorms from Palestine to Centerville to Cameron are moving northwest at 20 mph. These storms should diminish shortly after sunset. Additional showers and storms which developed northwest of the region are moving east into Young County. Activity should affect areas from Bowie to Olney through 8 PM...with occasional lightning and brief heavy rain possible.

×

10-Day Weather Forecast

Almanac

Astronomy

Aug. 28, 2014 Rise Set
Actual Time 7:00 AM CDT 7:58 PM CDT
Civil Twilight 6:35 AM CDT 8:23 PM CDT
Nautical Twilight 6:05 AM CDT 8:53 PM CDT
Astronomical Twilight 5:34 AM CDT 9:24 PM CDT
Moon 9:42 AM CDT (8/28) 9:36 PM CDT (8/28)
Length of Visible Light 13h 48m
Length of Day
12h 57m
Tomorrow will be 1m 54s shorter.
Waxing Crescent, 11% of the Moon is Illuminated
Today
Waxing Crescent
Sep 2
First Quarter
Sep 8
Full
Sep 15
Last Quarter
Sep 24
New

Today's Extremes

State Highs State Lows

Community

WunderPhotos

Upload Photos

1,748,112 photos uploaded!

Nearby

Air Quality

  Air Quality AQ Index Pollutant
Yesterday Moderate
OZONE
Yesterday Moderate
PM2.5
Current Good
OZONE
Current Good
PM2.5
Thursday Moderate
OZONE
Thursday Good
PM10
Friday Good
OZONE
Friday Good
PM10
Saturday Good
OZONE
Saturday Good
PM10
Sunday Good
OZONE
Sunday Good
PM10

Snow Depth

Station Depth Elevation
No new snow has been reported.

Earthquake Activity

City Distance Mag. Time & Date
No recent earthquake activity has been reported nearby.
Minimum magnitude displayed is 2.5.

Coastal Water Temperatures

Place Temperature
No Stations Reporting

Nearby Weather Stations